createdAt,value
2019-03-13T00:00:16.001Z,45.01
2019-03-13T00:02:42.003Z,45.13
2019-03-13T00:05:07.995Z,45.11
2019-03-13T00:07:33.999Z,45.16
2019-03-13T00:09:59.992Z,45.06
2019-03-13T00:12:25.994Z,45.15
2019-03-13T00:14:51.995Z,45.09
2019-03-13T00:17:17.992Z,45.04
2019-03-13T00:19:43.987Z,45.07
2019-03-13T00:22:10.009Z,45.13
2019-03-13T00:24:36.010Z,45.17
2019-03-13T00:27:02.020Z,44.95
2019-03-13T00:29:28.020Z,44.97
2019-03-13T00:31:54.015Z,45.00
2019-03-13T00:34:20.017Z,45.09
2019-03-13T00:36:46.018Z,45.06
2019-03-13T00:39:12.022Z,45.08
2019-03-13T00:41:38.016Z,44.92
2019-03-13T00:44:04.039Z,44.99
2019-03-13T00:46:30.040Z,45.04
2019-03-13T00:48:56.036Z,44.99
2019-03-13T00:51:22.039Z,44.97
2019-03-13T00:53:48.036Z,45.08
2019-03-13T00:56:14.041Z,45.11
2019-03-13T00:58:40.032Z,45.00
2019-03-13T01:01:06.051Z,45.04
2019-03-13T01:03:32.047Z,44.94
2019-03-13T01:05:58.041Z,45.06
2019-03-13T01:08:24.044Z,45.04
2019-03-13T01:10:50.038Z,44.92
2019-03-13T01:13:16.131Z,44.93
2019-03-13T01:15:42.124Z,44.92
2019-03-13T01:18:08.122Z,45.09
2019-03-13T01:20:34.121Z,44.96
2019-03-13T01:23:00.144Z,44.94
2019-03-13T01:25:26.139Z,45.09
2019-03-13T01:27:52.131Z,45.05
2019-03-13T01:30:18.132Z,44.92
2019-03-13T01:32:44.136Z,44.90
2019-03-13T01:35:10.138Z,44.98
2019-03-13T01:37:36.130Z,45.04
2019-03-13T01:40:02.132Z,44.88
2019-03-13T01:42:28.122Z,45.03
2019-03-13T01:44:54.123Z,44.84
2019-03-13T01:47:20.118Z,44.84
2019-03-13T01:49:46.142Z,44.78
2019-03-13T01:52:12.136Z,44.96
2019-03-13T01:54:38.126Z,44.93
2019-03-13T01:57:04.156Z,44.90
2019-03-13T01:59:30.146Z,45.01
2019-03-13T02:01:56.148Z,44.80
2019-03-13T02:04:22.163Z,44.98
2019-03-13T02:06:48.154Z,44.96
2019-03-13T02:09:14.159Z,44.95
2019-03-13T02:11:40.153Z,44.89
2019-03-13T02:14:06.152Z,44.85
2019-03-13T02:16:32.150Z,44.85
2019-03-13T02:18:58.151Z,44.72
2019-03-13T02:21:24.147Z,44.90
2019-03-13T02:23:50.171Z,44.91
2019-03-13T02:26:16.174Z,44.87
2019-03-13T02:28:42.167Z,44.70
2019-03-13T02:31:08.173Z,44.95
2019-03-13T02:33:34.159Z,44.85
2019-03-13T02:36:00.164Z,44.87
2019-03-13T02:38:26.158Z,44.77
2019-03-13T02:40:52.166Z,44.69
2019-03-13T02:43:18.153Z,44.70
2019-03-13T02:45:44.151Z,44.78
2019-03-13T02:48:10.146Z,44.78
2019-03-13T02:50:36.177Z,44.66
2019-03-13T02:53:02.169Z,44.77
2019-03-13T02:55:28.161Z,44.88
2019-03-13T02:57:54.161Z,44.75
2019-03-13T03:00:20.160Z,44.90
2019-03-13T03:02:46.156Z,44.90
2019-03-13T03:05:12.149Z,44.85
2019-03-13T03:07:38.154Z,44.59
2019-03-13T03:10:04.156Z,44.80
2019-03-13T03:12:30.161Z,44.74
2019-03-13T03:14:56.154Z,44.86
2019-03-13T03:17:22.210Z,44.81
2019-03-13T03:19:48.196Z,44.63
2019-03-13T03:22:14.193Z,44.56
2019-03-13T03:24:40.193Z,44.72
2019-03-13T03:27:06.194Z,44.87
2019-03-13T03:29:32.194Z,44.68
2019-03-13T03:31:58.192Z,44.68
2019-03-13T03:34:24.197Z,44.70
2019-03-13T03:36:50.230Z,44.74
2019-03-13T03:39:16.191Z,44.76
2019-03-13T03:41:42.196Z,44.54
2019-03-13T03:44:08.194Z,44.70
2019-03-13T03:46:34.193Z,44.65
2019-03-13T03:49:00.190Z,44.80
2019-03-13T03:51:26.212Z,44.79
2019-03-13T03:53:52.222Z,44.58
2019-03-13T03:56:18.218Z,44.59
2019-03-13T03:58:44.215Z,44.80
2019-03-13T04:01:10.218Z,44.69
2019-03-13T04:03:36.222Z,44.86
2019-03-13T04:06:02.221Z,44.79
2019-03-13T04:08:28.216Z,44.82
2019-03-13T04:10:54.225Z,44.83
2019-03-13T04:13:20.226Z,44.83
2019-03-13T04:15:46.221Z,44.65
2019-03-13T04:18:12.231Z,44.81
2019-03-13T04:20:38.248Z,44.55
2019-03-13T04:23:04.272Z,44.70
2019-03-13T04:25:30.270Z,44.84
2019-03-13T04:27:56.273Z,44.79
2019-03-13T04:30:22.276Z,44.85
2019-03-13T04:32:48.266Z,44.68
2019-03-13T04:35:14.281Z,44.79
2019-03-13T04:37:40.272Z,44.80
2019-03-13T04:40:06.271Z,44.58
2019-03-13T04:42:32.268Z,44.81
2019-03-13T04:44:58.317Z,44.81
2019-03-13T04:47:25.149Z,44.79
2019-03-13T04:49:50.287Z,44.57
2019-03-13T04:52:16.300Z,44.80
2019-03-13T04:54:42.297Z,44.73
2019-03-13T04:57:08.300Z,44.54
2019-03-13T04:59:34.296Z,44.82
2019-03-13T05:02:00.320Z,44.76
2019-03-13T05:04:26.321Z,44.80
2019-03-13T05:06:52.312Z,44.78
2019-03-13T05:09:18.318Z,44.78
2019-03-13T05:11:44.320Z,44.71
2019-03-13T05:14:10.321Z,44.52
2019-03-13T05:16:36.318Z,44.75
2019-03-13T05:19:02.307Z,44.80
2019-03-13T05:21:28.323Z,44.70
2019-03-13T05:23:54.334Z,44.79
2019-03-13T05:26:20.347Z,44.73
2019-03-13T05:28:46.346Z,44.77
2019-03-13T05:31:12.348Z,44.62
2019-03-13T05:33:38.344Z,44.80
2019-03-13T05:36:04.354Z,44.75
2019-03-13T05:38:30.344Z,44.75
2019-03-13T05:40:56.347Z,44.51
2019-03-13T05:43:22.347Z,44.70
2019-03-13T05:45:48.449Z,44.47
2019-03-13T05:48:14.458Z,44.84
2019-03-13T05:50:40.454Z,45.00
2019-03-13T05:53:06.463Z,45.29
2019-03-13T05:55:32.463Z,45.51
2019-03-13T05:57:58.464Z,45.63
2019-03-13T06:00:24.478Z,45.64
2019-03-13T06:02:50.601Z,45.66
2019-03-13T06:05:16.599Z,46.04
2019-03-13T06:07:42.602Z,45.88
2019-03-13T06:10:08.611Z,46.03
2019-03-13T06:12:34.612Z,46.00
2019-03-13T06:15:03.430Z,46.09
2019-03-13T06:17:26.619Z,46.07
2019-03-13T06:19:52.646Z,45.98
2019-03-13T06:22:18.619Z,45.81
2019-03-13T06:24:44.627Z,45.97
2019-03-13T06:27:10.664Z,45.85
2019-03-13T06:29:36.670Z,45.88
2019-03-13T06:32:02.681Z,45.98
2019-03-13T06:34:28.699Z,45.78
2019-03-13T06:36:54.717Z,45.79
2019-03-13T06:39:20.719Z,46.08
2019-03-13T06:41:46.736Z,46.22
2019-03-13T06:44:12.808Z,46.13
2019-03-13T06:46:38.843Z,46.68
2019-03-13T06:49:04.981Z,46.67
2019-03-13T06:51:30.981Z,47.08
2019-03-13T06:53:56.972Z,46.92
2019-03-13T06:56:22.993Z,46.75
2019-03-13T06:58:48.996Z,46.54
2019-03-13T07:01:14.995Z,46.68
2019-03-13T07:03:40.990Z,46.88
2019-03-13T07:06:07.004Z,47.14
2019-03-13T07:08:33.008Z,46.82
2019-03-13T07:10:59.019Z,46.47
2019-03-13T07:13:25.017Z,46.44
2019-03-13T07:15:51.016Z,46.62
2019-03-13T07:18:17.006Z,46.36
2019-03-13T07:20:43.010Z,46.38
2019-03-13T07:23:09.030Z,46.21
2019-03-13T07:25:35.032Z,46.03
2019-03-13T07:28:01.041Z,46.02
2019-03-13T07:30:27.048Z,45.99
2019-03-13T07:32:56.372Z,46.02
2019-03-13T07:35:19.049Z,46.04
2019-03-13T07:37:45.071Z,46.16
2019-03-13T07:40:11.191Z,46.03
2019-03-13T07:42:41.265Z,45.97
2019-03-13T07:45:07.269Z,45.89
2019-03-13T07:47:33.328Z,45.83
2019-03-13T07:49:59.548Z,45.98
2019-03-13T07:52:28.398Z,45.98
2019-03-13T07:54:54.456Z,46.35
2019-03-13T07:57:20.452Z,46.27
2019-03-13T07:59:46.475Z,46.35
2019-03-13T08:02:12.481Z,46.26
2019-03-13T08:04:38.499Z,46.30
2019-03-13T08:07:04.499Z,46.50
2019-03-13T08:09:30.490Z,46.34
2019-03-13T08:11:56.498Z,46.72
2019-03-13T08:14:22.510Z,46.22
2019-03-13T08:16:48.513Z,46.05
2019-03-13T08:19:14.522Z,45.99
2019-03-13T08:21:40.513Z,46.27
2019-03-13T08:24:06.588Z,46.03
2019-03-13T08:26:32.597Z,45.78
2019-03-13T08:28:58.607Z,45.59
2019-03-13T08:31:24.614Z,45.54
2019-03-13T08:33:50.615Z,45.46
2019-03-13T08:36:16.619Z,45.34
2019-03-13T08:38:42.632Z,46.33
2019-03-13T08:41:08.629Z,45.79
2019-03-13T08:43:34.656Z,45.57
2019-03-13T08:46:00.678Z,45.46
2019-03-13T08:48:26.693Z,46.05
2019-03-13T08:50:52.697Z,46.14
2019-03-13T08:53:18.690Z,46.30
2019-03-13T08:55:44.895Z,45.64
2019-03-13T08:58:10.889Z,45.84
2019-03-13T09:00:36.970Z,45.79
2019-03-13T09:03:02.915Z,45.66
2019-03-13T09:05:28.949Z,45.57
2019-03-13T09:07:54.956Z,45.44
2019-03-13T09:10:22.680Z,45.34
2019-03-13T09:12:46.963Z,45.25
2019-03-13T09:15:12.966Z,45.11
2019-03-13T09:17:38.976Z,44.93
2019-03-13T09:20:04.971Z,44.89
2019-03-13T09:22:31.003Z,44.74
2019-03-13T09:25:10.846Z,45.09
2019-03-13T09:27:23.067Z,45.13
2019-03-13T09:29:49.061Z,45.16
2019-03-13T09:32:15.081Z,45.24
2019-03-13T09:34:41.075Z,45.19
2019-03-13T09:37:07.222Z,44.91
2019-03-13T09:39:33.216Z,44.90
2019-03-13T09:41:59.215Z,44.88
2019-03-13T09:44:25.244Z,44.90
2019-03-13T09:46:51.215Z,44.91
2019-03-13T09:49:19.926Z,44.97
2019-03-13T09:51:45.958Z,45.00
2019-03-13T09:54:11.993Z,44.97
2019-03-13T09:56:37.994Z,45.00
2019-03-13T09:59:03.989Z,45.04
2019-03-13T10:01:29.992Z,44.96
2019-03-13T10:03:55.991Z,45.05
2019-03-13T10:06:22.561Z,45.03
2019-03-13T10:08:47.992Z,45.11
2019-03-13T10:11:14.036Z,45.04
2019-03-13T10:13:40.081Z,45.12
2019-03-13T10:16:06.100Z,45.09
2019-03-13T10:18:32.112Z,45.04
2019-03-13T10:20:58.109Z,45.09
2019-03-13T10:23:24.119Z,45.08
2019-03-13T10:25:50.120Z,45.12
2019-03-13T10:28:16.117Z,45.12
2019-03-13T10:30:42.122Z,45.07
2019-03-13T10:33:08.276Z,45.14
2019-03-13T10:35:34.277Z,45.12
2019-03-13T10:38:12.895Z,45.12
2019-03-13T10:40:26.409Z,45.18
2019-03-13T10:42:52.424Z,45.15
2019-03-13T10:45:18.446Z,45.16
2019-03-13T10:47:44.464Z,45.17
2019-03-13T10:50:10.463Z,45.17
2019-03-13T10:52:36.460Z,45.17
2019-03-13T10:55:02.478Z,45.55
2019-03-13T10:57:28.471Z,45.56
2019-03-13T10:59:54.474Z,45.52
2019-03-13T11:02:20.486Z,45.64
2019-03-13T11:04:46.484Z,45.59
2019-03-13T11:07:12.483Z,45.63
2019-03-13T11:09:38.495Z,45.66
2019-03-13T11:12:04.508Z,45.72
2019-03-13T11:14:30.503Z,45.85
2019-03-13T11:16:56.499Z,45.76
2019-03-13T11:19:22.535Z,45.73
2019-03-13T11:21:48.524Z,45.84
2019-03-13T11:24:14.532Z,45.84
2019-03-13T11:26:40.528Z,45.89
2019-03-13T11:29:06.707Z,45.87
2019-03-13T11:31:32.704Z,45.90
2019-03-13T11:33:58.723Z,45.89
2019-03-13T11:36:24.737Z,45.85
2019-03-13T11:38:50.735Z,45.91
2019-03-13T11:41:16.737Z,45.93
2019-03-13T11:43:42.747Z,45.81
2019-03-13T11:46:08.752Z,45.62
2019-03-13T11:48:34.751Z,45.60
2019-03-13T11:51:00.759Z,45.64
2019-03-13T11:53:27.157Z,45.57
2019-03-13T11:55:53.156Z,45.57
2019-03-13T11:58:31.398Z,45.48
2019-03-13T12:00:57.429Z,45.50
2019-03-13T12:03:23.457Z,45.46
2019-03-13T12:05:49.470Z,45.44
2019-03-13T12:08:15.477Z,45.41
2019-03-13T12:10:41.472Z,45.36
2019-03-13T12:13:10.353Z,45.29
2019-03-13T12:15:33.496Z,45.35
2019-03-13T12:17:59.510Z,45.25
2019-03-13T12:20:25.509Z,45.19
2019-03-13T12:22:51.540Z,45.18
2019-03-13T12:25:17.550Z,45.15
2019-03-13T12:27:43.549Z,45.01
2019-03-13T12:30:09.558Z,44.70
2019-03-13T12:32:35.582Z,44.83
2019-03-13T12:35:01.621Z,44.69
2019-03-13T12:37:27.621Z,44.72
2019-03-13T12:39:53.616Z,44.88
2019-03-13T12:42:19.616Z,44.97
2019-03-13T12:44:45.607Z,45.04
2019-03-13T12:47:11.620Z,45.09
2019-03-13T12:49:37.624Z,45.19
2019-03-13T12:52:03.671Z,45.22
2019-03-13T12:54:29.672Z,45.11
2019-03-13T12:56:55.671Z,44.99
2019-03-13T12:59:21.713Z,44.88
2019-03-13T13:01:47.705Z,44.79
2019-03-13T13:04:13.705Z,44.70
2019-03-13T13:06:39.704Z,44.73
2019-03-13T13:09:05.719Z,44.88
2019-03-13T13:11:31.731Z,44.88
2019-03-13T13:13:57.739Z,44.71
2019-03-13T13:16:23.723Z,44.69
2019-03-13T13:18:49.736Z,44.75
2019-03-13T13:21:15.726Z,44.83
2019-03-13T13:23:41.733Z,44.77
2019-03-13T13:26:07.807Z,44.88
2019-03-13T13:28:33.747Z,44.81
2019-03-13T13:30:59.757Z,44.87
2019-03-13T13:33:25.752Z,44.99
2019-03-13T13:35:51.752Z,45.09
2019-03-13T13:38:17.774Z,45.20
2019-03-13T13:40:44.003Z,45.19
2019-03-13T13:43:10.004Z,45.29
2019-03-13T13:45:36.196Z,45.38
2019-03-13T13:48:02.195Z,45.50
2019-03-13T13:50:28.197Z,45.53
2019-03-13T13:52:54.191Z,45.59
2019-03-13T13:55:20.188Z,45.59
2019-03-13T13:57:46.199Z,45.70
2019-03-13T14:00:12.198Z,45.58
2019-03-13T14:02:38.201Z,45.50
2019-03-13T14:05:04.199Z,45.44
2019-03-13T14:07:30.239Z,45.47
2019-03-13T14:09:56.258Z,45.44
2019-03-13T14:12:22.251Z,45.38
2019-03-13T14:14:48.251Z,45.30
2019-03-13T14:17:14.263Z,45.24
2019-03-13T14:19:40.266Z,45.16
2019-03-13T14:22:06.260Z,45.20
2019-03-13T14:24:32.261Z,45.17
2019-03-13T14:26:58.260Z,45.05
2019-03-13T14:29:24.259Z,45.01
2019-03-13T14:31:50.265Z,45.06
2019-03-13T14:34:16.300Z,44.91
2019-03-13T14:36:42.308Z,44.93
2019-03-13T14:39:08.320Z,45.03
2019-03-13T14:41:34.302Z,45.09
2019-03-13T14:44:00.314Z,45.02
2019-03-13T14:46:26.318Z,45.00
2019-03-13T14:48:52.334Z,45.00
2019-03-13T14:51:18.387Z,44.95
2019-03-13T14:53:44.331Z,44.95
2019-03-13T14:56:10.355Z,44.93
2019-03-13T14:58:36.351Z,44.92
2019-03-13T15:01:02.347Z,44.95
2019-03-13T15:03:28.352Z,44.90
2019-03-13T15:05:54.348Z,44.88
2019-03-13T15:08:20.348Z,44.85
2019-03-13T15:10:46.344Z,44.72
2019-03-13T15:13:12.345Z,44.85
2019-03-13T15:15:38.348Z,44.68
2019-03-13T15:18:04.351Z,44.86
2019-03-13T15:20:30.363Z,44.82
2019-03-13T15:22:56.359Z,44.73
2019-03-13T15:25:22.359Z,44.66
2019-03-13T15:27:48.358Z,44.74
2019-03-13T15:30:14.358Z,44.48
2019-03-13T15:32:40.387Z,44.55
2019-03-13T15:35:06.421Z,44.29
2019-03-13T15:37:32.414Z,44.26
2019-03-13T15:39:58.439Z,44.52
2019-03-13T15:42:24.449Z,44.48
2019-03-13T15:44:50.445Z,44.53
2019-03-13T15:47:16.443Z,44.23
2019-03-13T15:49:42.451Z,44.49
2019-03-13T15:52:08.460Z,44.56
2019-03-13T15:54:34.532Z,44.54
2019-03-13T15:57:00.497Z,44.54
2019-03-13T15:59:26.509Z,44.40
2019-03-13T16:01:52.510Z,44.53
2019-03-13T16:04:18.593Z,44.56
2019-03-13T16:06:44.690Z,44.52
2019-03-13T16:09:10.615Z,44.62
2019-03-13T16:11:36.613Z,44.32
2019-03-13T16:14:02.618Z,44.57
2019-03-13T16:16:28.613Z,44.57
2019-03-13T16:18:54.634Z,44.51
2019-03-13T16:21:20.614Z,44.58
2019-03-13T16:23:46.620Z,44.59
2019-03-13T16:26:12.615Z,44.35
2019-03-13T16:28:38.621Z,44.47
2019-03-13T16:31:04.636Z,44.49
2019-03-13T16:33:30.647Z,44.69
2019-03-13T16:35:56.718Z,44.70
2019-03-13T16:38:22.722Z,44.84
2019-03-13T16:40:48.723Z,44.88
2019-03-13T16:43:14.719Z,44.90
2019-03-13T16:45:40.719Z,44.93
2019-03-13T16:48:06.715Z,44.95
2019-03-13T16:50:32.712Z,44.93
2019-03-13T16:52:58.713Z,44.94
2019-03-13T16:55:24.723Z,44.90
2019-03-13T16:57:50.727Z,44.91
2019-03-13T17:00:16.714Z,44.89
2019-03-13T17:02:42.747Z,44.94
2019-03-13T17:05:08.752Z,44.86
2019-03-13T17:07:34.758Z,44.96
2019-03-13T17:10:00.763Z,44.94
2019-03-13T17:12:26.778Z,44.95
2019-03-13T17:14:52.788Z,44.99
2019-03-13T17:17:18.784Z,45.04
2019-03-13T17:19:44.790Z,45.07
2019-03-13T17:22:10.793Z,45.11
2019-03-13T17:24:36.869Z,45.09
2019-03-13T17:27:02.873Z,45.10
2019-03-13T17:29:28.891Z,45.12
2019-03-13T17:31:54.897Z,45.16
2019-03-13T17:34:20.963Z,45.10
2019-03-13T17:36:46.983Z,45.02
2019-03-13T17:39:12.982Z,44.99
2019-03-13T17:41:38.980Z,44.69
2019-03-13T17:44:04.998Z,44.81
2019-03-13T17:46:31.080Z,44.70
2019-03-13T17:48:57.079Z,44.74
2019-03-13T17:51:23.070Z,44.66
2019-03-13T17:53:49.085Z,44.79
2019-03-13T17:56:15.085Z,44.64
2019-03-13T17:58:41.105Z,44.68
2019-03-13T18:01:07.604Z,44.62
2019-03-13T18:03:33.604Z,44.69
2019-03-13T18:06:00.169Z,44.67
2019-03-13T18:08:26.706Z,44.60
2019-03-13T18:10:52.728Z,44.64
2019-03-13T18:13:18.743Z,44.47
2019-03-13T18:15:44.750Z,44.33
2019-03-13T18:18:10.744Z,44.36
2019-03-13T18:20:36.744Z,44.29
2019-03-13T18:23:02.749Z,44.32
2019-03-13T18:25:28.780Z,44.50
2019-03-13T18:27:54.785Z,44.47
2019-03-13T18:30:20.785Z,44.08
2019-03-13T18:32:46.788Z,44.00
2019-03-13T18:35:12.790Z,44.18
2019-03-13T18:37:38.844Z,44.36
2019-03-13T18:40:04.835Z,44.04
2019-03-13T18:42:30.855Z,44.15
2019-03-13T18:44:56.856Z,44.35
2019-03-13T18:47:22.927Z,43.95
2019-03-13T18:49:48.923Z,44.17
2019-03-13T18:52:14.953Z,44.28
2019-03-13T18:54:41.003Z,44.43
2019-03-13T18:57:06.996Z,44.53
2019-03-13T18:59:33.126Z,44.68
2019-03-13T19:01:58.995Z,44.73
2019-03-13T19:04:25.006Z,44.67
2019-03-13T19:06:51.008Z,44.73
2019-03-13T19:09:17.016Z,44.87
2019-03-13T19:11:43.044Z,44.97
2019-03-13T19:14:09.096Z,45.24
2019-03-13T19:16:35.272Z,45.26
2019-03-13T19:19:01.170Z,45.23
2019-03-13T19:21:27.180Z,45.17
2019-03-13T19:23:53.172Z,45.20
2019-03-13T19:26:19.194Z,45.27
2019-03-13T19:28:45.189Z,45.08
2019-03-13T19:31:11.190Z,44.80
2019-03-13T19:33:37.192Z,44.80
2019-03-13T19:36:03.188Z,44.94
2019-03-13T19:38:29.194Z,44.94
2019-03-13T19:40:55.187Z,44.96
2019-03-13T19:43:21.199Z,44.96
2019-03-13T19:45:47.201Z,44.95
2019-03-13T19:48:13.296Z,44.96
2019-03-13T19:50:41.832Z,45.57
2019-03-13T19:53:07.832Z,45.80
2019-03-13T19:55:33.842Z,46.37
2019-03-13T19:58:04.777Z,46.46
2019-03-13T20:00:31.738Z,46.37
2019-03-13T20:03:00.439Z,46.71
2019-03-13T20:05:23.717Z,46.76
2019-03-13T20:07:49.809Z,46.91
2019-03-13T20:10:15.721Z,46.68
2019-03-13T20:12:41.723Z,46.79
2019-03-13T20:15:07.721Z,46.88
2019-03-13T20:17:33.749Z,46.84
2019-03-13T20:19:59.747Z,46.64
2019-03-13T20:22:25.744Z,46.68
2019-03-13T20:24:51.768Z,46.98
2019-03-13T20:27:17.744Z,46.85
2019-03-13T20:29:43.744Z,46.81
2019-03-13T20:32:09.748Z,46.96
2019-03-13T20:34:35.821Z,46.85
2019-03-13T20:37:01.871Z,46.79
2019-03-13T20:39:27.887Z,46.84
2019-03-13T20:41:54.457Z,46.83
2019-03-13T20:44:19.887Z,47.10
2019-03-13T20:46:45.921Z,47.09
2019-03-13T20:49:11.917Z,47.00
2019-03-13T20:51:37.916Z,46.64
2019-03-13T20:54:03.927Z,46.99
2019-03-13T20:56:29.965Z,46.92
2019-03-13T20:58:55.960Z,47.06
2019-03-13T21:01:21.960Z,47.15
2019-03-13T21:03:48.050Z,46.79
2019-03-13T21:06:13.965Z,47.12
2019-03-13T21:08:40.164Z,46.98
2019-03-13T21:11:06.164Z,47.08
2019-03-13T21:13:32.192Z,47.08
2019-03-13T21:15:58.191Z,47.05
2019-03-13T21:18:24.191Z,47.02
2019-03-13T21:20:50.194Z,46.87
2019-03-13T21:23:16.265Z,46.71
2019-03-13T21:25:42.308Z,46.69
2019-03-13T21:28:08.305Z,46.37
2019-03-13T21:30:34.315Z,46.38
2019-03-13T21:33:00.313Z,46.25
2019-03-13T21:35:26.309Z,46.10
2019-03-13T21:37:52.307Z,46.04
2019-03-13T21:40:18.305Z,45.92
2019-03-13T21:42:44.323Z,45.83
2019-03-13T21:45:21.800Z,45.79
2019-03-13T21:47:36.316Z,45.64
2019-03-13T21:50:02.553Z,45.61
2019-03-13T21:52:28.320Z,45.50
2019-03-13T21:54:54.326Z,45.53
2019-03-13T21:57:20.317Z,45.46
2019-03-13T21:59:46.339Z,45.39
2019-03-13T22:02:12.565Z,45.26
2019-03-13T22:04:38.332Z,45.32
2019-03-13T22:07:04.339Z,45.22
2019-03-13T22:09:30.339Z,45.11
2019-03-13T22:11:56.338Z,45.04
2019-03-13T22:14:22.330Z,45.03
2019-03-13T22:16:48.437Z,45.12
2019-03-13T22:19:14.352Z,44.97
2019-03-13T22:21:40.347Z,44.94
2019-03-13T22:24:06.347Z,45.00
2019-03-13T22:26:32.342Z,44.70
2019-03-13T22:28:58.343Z,44.72
2019-03-13T22:31:24.343Z,44.73
2019-03-13T22:33:50.367Z,44.88
2019-03-13T22:36:16.363Z,44.89
2019-03-13T22:38:42.354Z,44.55
2019-03-13T22:41:08.368Z,44.49
2019-03-13T22:43:34.644Z,44.44
2019-03-13T22:46:00.401Z,44.74
2019-03-13T22:48:26.394Z,44.62
2019-03-13T22:50:52.390Z,44.41
2019-03-13T22:53:18.388Z,44.50
2019-03-13T22:55:44.390Z,44.29
2019-03-13T22:58:10.399Z,44.38
2019-03-13T23:00:36.400Z,44.37
2019-03-13T23:03:02.436Z,44.24
2019-03-13T23:05:28.438Z,44.28
2019-03-13T23:07:54.473Z,44.31
2019-03-13T23:10:20.432Z,44.22
2019-03-13T23:12:46.432Z,44.06
2019-03-13T23:15:12.438Z,44.37
2019-03-13T23:17:38.451Z,44.44
2019-03-13T23:20:04.450Z,44.48
2019-03-13T23:22:30.443Z,44.09
2019-03-13T23:24:56.469Z,44.31
2019-03-13T23:27:22.463Z,44.10
2019-03-13T23:29:48.459Z,44.33
2019-03-13T23:32:14.461Z,44.22
2019-03-13T23:34:40.464Z,43.85
2019-03-13T23:37:06.464Z,43.87
2019-03-13T23:39:32.467Z,44.25
2019-03-13T23:41:58.474Z,44.15
2019-03-13T23:44:24.468Z,43.93
2019-03-13T23:46:50.488Z,43.81
2019-03-13T23:49:16.481Z,43.87
2019-03-13T23:51:42.481Z,43.90
2019-03-13T23:54:08.485Z,44.20
2019-03-13T23:56:34.482Z,43.66
2019-03-13T23:59:00.488Z,43.95
